Time;durP1;ratioP1;P1;durP2;ratioP2;P2;SDS_P1;SDS_P2;PMS_P1;PMS_P2;Temp;Humidity;BMP_temperature;BMP_pressure;BME280_temperature;BME280_humidity;BME280_pressure;Samples;Min_cycle;Max_cycle;Signal;HPM_P1;HPM_P2
2023/03/10 00:00:07;;;;;;;6.60;2.00;;;;;;;7.98;100.00;96504.09;2552434;29;20106;-79
2023/03/10 00:01:28;;;;;;;7.07;2.13;;;;;;;7.97;100.00;96505.03;2551816;29;20063;-83
2023/03/10 00:02:48;;;;;;;6.07;2.08;;;;;;;8.11;100.00;96500.88;2553400;29;20435;-82
2023/03/10 00:04:04;;;;;;;6.15;1.95;;;;;;;7.91;100.00;96502.69;2553716;29;20404;-79
2023/03/10 00:05:20;;;;;;;7.82;2.33;;;;;;;7.98;100.00;96504.09;2550951;29;20390;-80
2023/03/10 00:06:37;;;;;;;4.72;2.10;;;;;;;7.68;100.00;96498.59;2551602;29;20419;-80
2023/03/10 00:07:52;;;;;;;4.50;1.85;;;;;;;7.71;100.00;96499.31;2552273;29;20054;-85
2023/03/10 00:09:11;;;;;;;6.10;1.88;;;;;;;7.99;100.00;96505.78;2550724;29;20055;-81
2023/03/10 00:10:26;;;;;;;5.85;1.88;;;;;;;7.98;100.00;96503.25;2551071;29;20145;-81
2023/03/10 00:11:43;;;;;;;10.73;2.67;;;;;;;7.71;100.00;96501.91;2552133;29;20083;-81
2023/03/10 00:12:59;;;;;;;7.70;2.55;;;;;;;7.67;100.00;96496.91;2551234;29;20052;-82
2023/03/10 00:14:15;;;;;;;5.88;2.15;;;;;;;8.03;100.00;96496.88;2552029;29;20125;-79
2023/03/10 00:15:30;;;;;;;5.55;2.10;;;;;;;8.10;100.00;96500.03;2552098;29;20075;-80
2023/03/10 00:16:46;;;;;;;6.60;2.20;;;;;;;7.98;100.00;96496.28;2552386;29;20462;-81
2023/03/10 00:18:01;;;;;;;7.95;1.98;;;;;;;7.67;100.00;96492.53;2552606;29;20114;-80
2023/03/10 00:19:17;;;;;;;6.28;2.08;;;;;;;7.71;100.00;96490.63;2552770;29;20082;-82
2023/03/10 00:20:33;;;;;;;4.45;1.92;;;;;;;7.72;100.00;96490.56;2552478;29;20186;-80
2023/03/10 00:21:48;;;;;;;6.43;2.22;;;;;;;7.89;100.00;96489.75;2551906;29;20054;-82
2023/03/10 00:23:04;;;;;;;3.83;1.88;;;;;;;7.95;100.00;96485.97;2552154;29;20062;-80
2023/03/10 00:24:19;;;;;;;4.25;1.85;;;;;;;7.54;100.00;96484.47;2552359;29;20431;-80
2023/03/10 00:25:35;;;;;;;4.65;1.98;;;;;;;7.63;100.00;96481.44;2552012;29;20103;-80
2023/03/10 00:26:51;;;;;;;4.20;1.70;;;;;;;7.41;100.00;96483.34;2552044;29;20503;-80
2023/03/10 00:28:06;;;;;;;6.70;1.90;;;;;;;7.69;100.00;96477.69;2553315;29;20058;-80
2023/03/10 00:29:22;;;;;;;5.25;2.15;;;;;;;7.29;100.00;96469.16;2553553;29;20198;-79
2023/03/10 00:30:38;;;;;;;5.43;1.80;;;;;;;7.54;100.00;96470.59;2552598;29;20094;-80
2023/03/10 00:31:53;;;;;;;5.05;1.77;;;;;;;7.61;100.00;96462.44;2552875;29;20058;-80
2023/03/10 00:33:09;;;;;;;5.45;1.70;;;;;;;7.62;100.00;96456.31;2540739;29;20539;-80
2023/03/10 00:34:24;;;;;;;6.00;1.88;;;;;;;7.82;100.00;96458.84;2545717;29;20055;-80
2023/03/10 00:35:40;;;;;;;5.70;2.03;;;;;;;7.52;100.00;96460.25;2551784;29;20047;-80
2023/03/10 00:36:56;;;;;;;4.05;1.95;;;;;;;7.26;100.00;96457.13;2551579;28;20061;-79
2023/03/10 00:38:11;;;;;;;5.07;1.70;;;;;;;7.45;100.00;96445.84;2550485;29;20047;-79
2023/03/10 00:39:27;;;;;;;5.57;2.30;;;;;;;7.67;100.00;96452.63;2553464;29;20521;-80
2023/03/10 00:40:43;;;;;;;6.25;1.95;;;;;;;7.66;100.00;96449.16;2552848;29;20055;-79
2023/03/10 00:41:58;;;;;;;3.00;1.63;;;;;;;7.88;100.00;96450.75;2551400;29;20569;-85
2023/03/10 00:43:14;;;;;;;6.28;1.70;;;;;;;8.18;100.00;96440.56;2551708;29;20411;-81
2023/03/10 00:44:29;;;;;;;4.97;1.70;;;;;;;8.38;100.00;96432.59;2551520;29;20170;-80
2023/03/10 00:45:45;;;;;;;4.40;2.05;;;;;;;7.81;100.00;96433.72;2552492;29;20878;-82
2023/03/10 00:47:01;;;;;;;6.47;2.53;;;;;;;8.00;100.00;96431.91;2551626;29;20110;-81
2023/03/10 00:48:16;;;;;;;5.97;2.03;;;;;;;8.34;100.00;96419.72;2550103;29;20048;-80
2023/03/10 00:49:32;;;;;;;6.72;2.45;;;;;;;8.10;100.00;96420.97;2551963;29;20051;-80
2023/03/10 00:50:48;;;;;;;5.68;2.25;;;;;;;8.22;100.00;96411.72;2552141;29;20103;-80
2023/03/10 00:52:03;;;;;;;5.50;1.98;;;;;;;8.36;100.00;96411.00;2553119;29;20043;-80
2023/03/10 00:53:19;;;;;;;5.43;1.92;;;;;;;7.99;100.00;96408.50;2552025;29;20063;-79
2023/03/10 00:54:38;;;;;;;6.18;2.15;;;;;;;8.11;100.00;96399.25;2552976;29;20537;-80
2023/03/10 00:56:10;;;;;;;5.93;2.20;;;;;;;7.98;100.00;96397.25;2552707;29;20292;-81
2023/03/10 00:57:26;;;;;;;8.07;2.28;;;;;;;7.54;100.00;96397.69;2553594;29;20055;-80
2023/03/10 00:58:42;;;;;;;6.05;2.42;;;;;;;7.62;100.00;96398.16;2550765;29;20075;-83
2023/03/10 00:59:58;;;;;;;5.90;2.25;;;;;;;7.64;100.00;96385.91;2551188;29;20263;-83
2023/03/10 01:01:23;;;;;;;5.45;2.00;;;;;;;7.32;100.00;96386.53;2553141;29;20067;-80
2023/03/10 01:02:40;;;;;;;4.93;2.03;;;;;;;6.95;100.00;96396.09;2551869;29;21078;-83
2023/03/10 01:03:59;;;;;;;4.68;1.70;;;;;;;7.05;100.00;96383.50;2542622;29;20090;-82
2023/03/10 01:05:14;;;;;;;5.45;1.92;;;;;;;7.45;100.00;96384.22;2544737;29;20048;-80
2023/03/10 01:06:31;;;;;;;4.85;1.63;;;;;;;7.58;100.00;96389.66;2550636;29;20051;-80
2023/03/10 01:07:47;;;;;;;2.95;1.63;;;;;;;7.85;100.00;96388.38;2550533;29;20085;-80
2023/03/10 01:09:03;;;;;;;6.18;1.88;;;;;;;7.95;100.00;96384.34;2552429;29;20058;-81
2023/03/10 01:10:19;;;;;;;6.18;1.85;;;;;;;7.63;100.00;96387.69;2551596;29;20517;-80
2023/03/10 01:11:35;;;;;;;11.30;1.77;;;;;;;7.93;100.00;96381.00;2551151;29;20122;-80
2023/03/10 01:12:50;;;;;;;5.20;1.88;;;;;;;7.86;100.00;96382.25;2551536;29;20047;-80
2023/03/10 01:14:09;;;;;;;4.43;1.60;;;;;;;7.99;100.00;96383.31;2552143;29;20061;-85
2023/03/10 01:15:25;;;;;;;4.93;2.30;;;;;;;8.05;100.00;96372.56;2552173;29;20529;-81
2023/03/10 01:16:41;;;;;;;6.22;2.17;;;;;;;8.06;100.00;96368.19;2551625;29;20051;-85
2023/03/10 01:17:56;;;;;;;4.93;1.63;;;;;;;7.55;100.00;96365.53;2551127;29;20063;-81
2023/03/10 01:19:12;;;;;;;4.85;1.73;;;;;;;7.64;100.00;96367.66;2551420;29;20051;-80
2023/03/10 01:20:32;;;;;;;6.95;1.88;;;;;;;7.56;100.00;96368.06;2553270;29;20085;-80
2023/03/10 01:21:48;;;;;;;5.40;1.92;;;;;;;7.74;100.00;96375.84;2551632;29;20115;-80
2023/03/10 01:23:03;;;;;;;5.53;2.13;;;;;;;7.46;100.00;96370.28;2550486;29;20472;-80
2023/03/10 01:24:19;;;;;;;4.28;1.90;;;;;;;7.58;100.00;96362.78;2550175;29;20123;-82
2023/03/10 01:25:35;;;;;;;7.10;1.80;;;;;;;7.71;100.00;96357.78;2550742;29;20161;-81
2023/03/10 01:26:50;;;;;;;4.88;1.77;;;;;;;7.62;100.00;96359.09;2550332;29;20052;-81
2023/03/10 01:28:06;;;;;;;6.00;2.10;;;;;;;7.69;100.00;96350.06;2550755;29;20051;-80
2023/03/10 01:29:21;;;;;;;7.90;2.55;;;;;;;7.27;100.00;96346.88;2550930;29;20051;-80
2023/03/10 01:30:38;;;;;;;7.10;2.72;;;;;;;7.53;100.00;96343.91;2550337;29;20060;-80
2023/03/10 01:31:54;;;;;;;7.03;2.72;;;;;;;7.56;100.00;96349.00;2550473;29;20047;-81
2023/03/10 01:33:10;;;;;;;8.63;3.00;;;;;;;7.50;100.00;96347.53;2552394;29;20063;-83
2023/03/10 01:34:26;;;;;;;10.73;3.50;;;;;;;7.64;100.00;96336.41;2553093;29;20095;-80
2023/03/10 01:35:42;;;;;;;6.72;3.15;;;;;;;7.56;100.00;96344.63;2549776;29;20140;-80
2023/03/10 01:36:58;;;;;;;6.85;2.90;;;;;;;7.01;100.00;96338.56;2552479;28;20676;-81
2023/03/10 01:38:14;;;;;;;6.82;2.90;;;;;;;7.20;100.00;96333.31;2551696;29;20059;-84
2023/03/10 01:39:29;;;;;;;8.48;2.58;;;;;;;7.41;100.00;96335.81;2551688;29;20051;-81
2023/03/10 01:40:49;;;;;;;6.63;2.58;;;;;;;7.27;100.00;96333.06;2551788;29;20054;-81
2023/03/10 01:42:05;;;;;;;8.75;2.63;;;;;;;7.26;100.00;96339.16;2551014;29;20058;-84
2023/03/10 01:43:29;;;;;;;9.30;3.20;;;;;;;7.32;100.00;96326.66;2549956;29;20062;-82
2023/03/10 01:45:03;;;;;;;6.75;3.58;;;;;;;7.39;100.00;96327.22;2551952;29;20403;-80
2023/03/10 01:46:37;;;;;;;9.05;2.67;;;;;;;7.33;100.00;96322.31;2550925;29;20090;-81
2023/03/10 01:47:53;;;;;;;6.80;3.17;;;;;;;7.24;100.00;96317.56;2551053;29;20475;-81
2023/03/10 01:49:16;;;;;;;7.38;2.60;;;;;;;7.13;100.00;96310.28;2549837;29;20054;-81
2023/03/10 01:50:32;;;;;;;5.82;2.35;;;;;;;7.13;100.00;96321.56;2550743;29;20056;-80
2023/03/10 01:51:54;;;;;;;10.55;2.58;;;;;;;7.40;100.00;96302.03;2550952;29;20499;-81
2023/03/10 01:53:11;;;;;;;7.45;2.33;;;;;;;7.21;100.00;96309.00;2552008;29;20082;-81
2023/03/10 01:54:35;;;;;;;8.63;3.70;;;;;;;7.31;100.00;96309.38;2551819;29;20071;-80
2023/03/10 01:55:54;;;;;;;7.60;3.25;;;;;;;7.60;100.00;96308.84;2551333;29;20569;-81
2023/03/10 01:57:12;;;;;;;7.72;3.58;;;;;;;7.13;100.00;96310.28;2550866;29;21093;-84
2023/03/10 01:58:36;;;;;;;8.38;3.78;;;;;;;7.41;100.00;96309.78;2551412;29;20474;-80
2023/03/10 01:59:54;;;;;;;10.35;4.30;;;;;;;7.39;100.00;96302.97;2551210;29;20047;-82
2023/03/10 02:01:12;;;;;;;9.30;4.15;;;;;;;7.21;100.00;96293.38;2549673;29;20060;-81
2023/03/10 02:02:32;;;;;;;7.70;3.28;;;;;;;7.27;100.00;96292.22;2552667;29;20142;-81
2023/03/10 02:03:56;;;;;;;6.20;3.35;;;;;;;7.14;100.00;96291.16;2551101;29;20047;-80
2023/03/10 02:05:13;;;;;;;7.00;3.75;;;;;;;7.17;100.00;96286.66;2552131;29;20422;-81
2023/03/10 02:06:29;;;;;;;8.40;3.78;;;;;;;7.23;100.00;96280.28;2552653;29;20131;-81
2023/03/10 02:07:44;;;;;;;9.75;3.30;;;;;;;7.11;100.00;96281.72;2541558;29;20122;-81
2023/03/10 02:09:02;;;;;;;8.32;3.33;;;;;;;7.39;100.00;96275.16;2544870;29;20066;-81
2023/03/10 02:10:18;;;;;;;7.53;2.67;;;;;;;7.58;100.00;96263.81;2549899;29;20494;-84
2023/03/10 02:11:36;;;;;;;9.32;3.22;;;;;;;7.40;100.00;96270.78;2549944;29;20056;-81
2023/03/10 02:12:52;;;;;;;6.78;2.75;;;;;;;7.50;100.00;96269.41;2551725;29;20114;-80
2023/03/10 02:14:07;;;;;;;5.13;2.50;;;;;;;7.39;100.00;96275.16;2551510;29;20865;-82
2023/03/10 02:15:23;;;;;;;8.05;2.65;;;;;;;7.57;100.00;96273.38;2550728;29;20178;-81
2023/03/10 02:16:39;;;;;;;3.92;1.95;;;;;;;7.51;100.00;96267.66;2550631;29;20113;-81
2023/03/10 02:17:55;;;;;;;4.82;2.20;;;;;;;7.71;100.00;96261.41;2551665;29;20066;-80
2023/03/10 02:19:22;;;;;;;7.68;2.17;;;;;;;7.69;100.00;96256.31;2550350;29;20052;-83
2023/03/10 02:20:40;;;;;;;6.80;2.42;;;;;;;7.66;100.00;96255.63;2552543;29;20091;-80
2023/03/10 02:22:11;;;;;;;9.02;2.35;;;;;;;7.71;100.00;96262.28;2549559;28;20051;-81
2023/03/10 02:23:29;;;;;;;6.13;2.20;;;;;;;8.00;100.00;96259.06;2550644;29;20070;-81
2023/03/10 02:24:58;;;;;;;4.90;1.70;;;;;;;7.99;100.00;96253.00;2552498;29;20435;-81
2023/03/10 02:26:20;;;;;;;6.18;2.40;;;;;;;7.82;100.00;96248.69;2540673;29;20056;-81
2023/03/10 02:27:38;;;;;;;4.03;1.90;;;;;;;7.97;100.00;96248.78;2545793;29;20055;-81
2023/03/10 02:28:57;;;;;;;3.40;1.48;;;;;;;7.85;100.00;96248.50;2550397;29;20083;-80
2023/03/10 02:30:28;;;;;;;5.57;1.92;;;;;;;7.82;100.00;96240.88;2551002;29;20590;-83
2023/03/10 02:31:44;;;;;;;6.82;1.98;;;;;;;8.01;100.00;96239.88;2551860;29;20053;-87
2023/03/10 02:33:15;;;;;;;5.68;1.80;;;;;;;8.02;100.00;96231.13;2550447;29;20147;-81
2023/03/10 02:34:30;;;;;;;5.35;1.70;;;;;;;8.10;100.00;96220.31;2550089;29;20232;-80
2023/03/10 02:35:46;;;;;;;4.78;1.80;;;;;;;8.04;100.00;96227.53;2539987;29;20079;-81
2023/03/10 02:37:02;;;;;;;5.03;1.75;;;;;;;7.90;100.00;96222.22;2544943;29;20070;-81
2023/03/10 02:38:18;;;;;;;5.43;1.48;;;;;;;7.92;100.00;96225.59;2551990;29;20047;-81
2023/03/10 02:39:33;;;;;;;6.15;1.70;;;;;;;7.98;100.00;96214.84;2551982;29;20054;-80
2023/03/10 02:40:51;;;;;;;6.65;1.90;;;;;;;8.05;100.00;96212.75;2551358;29;20078;-80
2023/03/10 02:42:09;;;;;;;5.10;2.08;;;;;;;7.96;100.00;96208.88;2551134;29;20378;-81
2023/03/10 02:43:28;;;;;;;4.18;1.50;;;;;;;8.04;100.00;96211.91;2549998;29;20043;-85
2023/03/10 02:44:46;;;;;;;5.40;1.30;;;;;;;8.08;100.00;96216.94;2551398;29;20600;-82
2023/03/10 02:46:04;;;;;;;5.15;1.60;;;;;;;8.14;100.00;96217.44;2550263;29;20150;-81
2023/03/10 02:47:20;;;;;;;3.88;1.58;;;;;;;8.34;100.00;96218.16;2550489;29;20058;-81
2023/03/10 02:48:38;;;;;;;4.18;1.80;;;;;;;8.09;100.00;96216.00;2551291;29;20051;-81
2023/03/10 02:49:54;;;;;;;7.28;2.00;;;;;;;8.23;100.00;96218.72;2549196;29;20110;-81
2023/03/10 02:51:14;;;;;;;3.58;1.77;;;;;;;8.11;100.00;96216.81;2549414;29;20492;-81
2023/03/10 02:52:45;;;;;;;3.40;1.75;;;;;;;8.05;100.00;96220.56;2550595;29;20062;-81
2023/03/10 02:54:01;;;;;;;3.63;1.30;;;;;;;7.91;100.00;96211.72;2549333;29;20554;-80
2023/03/10 02:55:17;;;;;;;2.55;1.20;;;;;;;8.25;100.00;96214.28;2550395;29;20051;-80
2023/03/10 02:56:34;;;;;;;6.30;1.40;;;;;;;8.09;100.00;96209.06;2551373;29;20052;-81
2023/03/10 02:57:49;;;;;;;5.43;1.15;;;;;;;8.08;100.00;96209.13;2550961;29;20056;-83
2023/03/10 02:59:06;;;;;;;4.78;1.25;;;;;;;8.30;100.00;96212.25;2551650;28;20422;-81
2023/03/10 03:00:21;;;;;;;8.55;1.55;;;;;;;8.10;100.00;96208.13;2550752;29;20047;-82
2023/03/10 03:01:37;;;;;;;3.05;1.20;;;;;;;8.43;100.00;96201.16;2550048;29;20506;-80
2023/03/10 03:02:53;;;;;;;2.03;1.27;;;;;;;8.30;100.00;96204.44;2551176;29;20055;-80
2023/03/10 03:04:08;;;;;;;7.85;1.35;;;;;;;8.22;100.00;96201.41;2551736;29;20092;-80
2023/03/10 03:05:24;;;;;;;4.32;1.42;;;;;;;8.27;100.00;96201.16;2550746;29;20498;-82
2023/03/10 03:06:40;;;;;;;5.50;1.70;;;;;;;8.28;100.00;96190.66;2550202;29;20199;-80
2023/03/10 03:07:55;;;;;;;4.60;1.63;;;;;;;8.42;100.00;96189.03;2550121;29;20513;-80
2023/03/10 03:09:11;;;;;;;2.60;1.35;;;;;;;8.25;100.00;96193.44;2549454;29;20168;-81
2023/03/10 03:10:27;;;;;;;3.60;1.30;;;;;;;8.48;100.00;96189.53;2550507;29;20048;-80
2023/03/10 03:11:43;;;;;;;5.45;1.52;;;;;;;7.90;100.00;96185.75;2551946;29;20454;-81
2023/03/10 03:12:58;;;;;;;4.45;1.45;;;;;;;8.44;100.00;96192.41;2549924;29;20083;-80
2023/03/10 03:14:14;;;;;;;3.40;1.55;;;;;;;7.83;100.00;96187.84;2549322;29;20125;-81
2023/03/10 03:15:30;;;;;;;3.05;1.50;;;;;;;8.15;100.00;96179.22;2550896;29;20111;-80
2023/03/10 03:16:46;;;;;;;4.35;1.30;;;;;;;7.99;100.00;96185.25;2551581;29;20051;-80
2023/03/10 03:18:02;;;;;;;3.50;1.52;;;;;;;8.19;100.00;96188.53;2552124;29;20090;-81
2023/03/10 03:19:18;;;;;;;3.35;1.40;;;;;;;8.39;100.00;96181.41;2551967;29;20047;-80
2023/03/10 03:20:36;;;;;;;4.15;1.50;;;;;;;8.25;100.00;96175.19;2550329;29;20047;-81
2023/03/10 03:21:52;;;;;;;2.58;1.13;;;;;;;7.83;100.00;96174.81;2549596;29;20051;-80
2023/03/10 03:23:08;;;;;;;3.40;1.40;;;;;;;8.28;100.00;96187.19;2549532;29;20278;-84
2023/03/10 03:24:23;;;;;;;3.03;1.35;;;;;;;8.19;100.00;96186.78;2549190;29;20066;-82
2023/03/10 03:25:40;;;;;;;2.80;1.50;;;;;;;8.26;100.00;96179.47;2549216;29;20482;-80
2023/03/10 03:26:56;;;;;;;4.30;1.27;;;;;;;8.19;100.00;96178.09;2550957;29;20095;-81
2023/03/10 03:28:12;;;;;;;6.53;1.80;;;;;;;8.26;100.00;96174.25;2549193;29;20055;-81
2023/03/10 03:29:28;;;;;;;8.45;1.63;;;;;;;8.17;100.00;96178.22;2550776;29;20086;-81
2023/03/10 03:30:44;;;;;;;3.10;1.40;;;;;;;8.17;100.00;96174.75;2549508;29;20152;-80
2023/03/10 03:32:00;;;;;;;3.92;1.75;;;;;;;8.41;100.00;96176.94;2550010;29;20138;-81
2023/03/10 03:33:15;;;;;;;2.78;1.38;;;;;;;8.16;100.00;96181.72;2550093;29;20546;-81
2023/03/10 03:34:31;;;;;;;2.53;1.08;;;;;;;8.08;100.00;96180.47;2551869;29;20067;-81
2023/03/10 03:35:47;;;;;;;2.67;1.27;;;;;;;8.02;100.00;96179.88;2549928;29;20058;-81
2023/03/10 03:37:02;;;;;;;3.92;1.55;;;;;;;8.05;100.00;96177.09;2552263;28;20055;-81
2023/03/10 03:38:18;;;;;;;2.33;1.20;;;;;;;8.15;100.00;96179.22;2550965;29;20527;-81
2023/03/10 03:39:34;;;;;;;4.72;1.42;;;;;;;8.12;100.00;96172.41;2552122;29;20079;-81
2023/03/10 03:40:49;;;;;;;3.47;1.67;;;;;;;8.15;100.00;96166.19;2540777;29;20055;-80
2023/03/10 03:42:05;;;;;;;5.22;1.50;;;;;;;8.15;100.00;96164.41;2544114;29;20059;-80
2023/03/10 03:43:21;;;;;;;5.07;1.58;;;;;;;8.05;100.00;96178.88;2551676;29;20062;-81
2023/03/10 03:44:36;;;;;;;4.10;1.30;;;;;;;7.90;100.00;96168.38;2549874;29;20639;-81
2023/03/10 03:45:52;;;;;;;3.83;1.20;;;;;;;8.16;100.00;96165.25;2549237;29;20366;-81
2023/03/10 03:47:09;;;;;;;4.82;1.50;;;;;;;7.92;100.00;96157.84;2552015;29;20059;-81
2023/03/10 03:48:25;;;;;;;3.35;1.35;;;;;;;7.83;100.00;96159.19;2551490;29;20094;-81
2023/03/10 03:49:41;;;;;;;4.30;1.65;;;;;;;7.74;100.00;96164.88;2550370;29;20102;-80
2023/03/10 03:50:56;;;;;;;4.60;1.25;;;;;;;7.83;100.00;96161.78;2550586;29;20055;-83
2023/03/10 03:52:12;;;;;;;4.65;1.48;;;;;;;7.54;100.00;96174.59;2550551;29;20768;-81
2023/03/10 03:53:27;;;;;;;4.15;1.40;;;;;;;8.09;100.00;96163.91;2549470;29;20257;-84
2023/03/10 03:54:43;;;;;;;4.93;1.70;;;;;;;8.21;100.00;96152.78;2551634;29;20426;-83
2023/03/10 03:55:58;;;;;;;4.80;1.60;;;;;;;8.42;100.00;96155.97;2550251;29;20055;-81
2023/03/10 03:57:14;;;;;;;5.13;1.83;;;;;;;8.19;100.00;96150.28;2550324;29;20059;-81
2023/03/10 03:58:30;;;;;;;4.32;1.50;;;;;;;8.27;100.00;96146.41;2550060;28;20138;-81
2023/03/10 03:59:45;;;;;;;4.13;1.42;;;;;;;7.97;100.00;96150.63;2549042;29;20051;-80
2023/03/10 04:01:01;;;;;;;6.65;1.77;;;;;;;7.98;100.00;96151.47;2539480;29;20140;-84
2023/03/10 04:02:16;;;;;;;3.00;1.30;;;;;;;7.90;100.00;96152.72;2543070;29;20047;-83
2023/03/10 04:03:32;;;;;;;2.88;1.40;;;;;;;8.18;100.00;96150.38;2549957;29;20410;-84
2023/03/10 04:04:48;;;;;;;4.07;1.45;;;;;;;8.38;100.00;96144.03;2551138;29;20504;-81
2023/03/10 04:06:06;;;;;;;3.53;1.70;;;;;;;7.86;100.00;96148.59;2551121;29;20950;-85
2023/03/10 04:07:21;;;;;;;3.50;1.67;;;;;;;7.96;100.00;96143.75;2548771;29;20051;-81
2023/03/10 04:08:38;;;;;;;4.88;2.05;;;;;;;8.09;100.00;96149.09;2551842;29;20055;-84
2023/03/10 04:09:53;;;;;;;3.38;1.50;;;;;;;7.95;100.00;96147.25;2540538;29;20099;-81
2023/03/10 04:11:09;;;;;;;4.35;1.60;;;;;;;8.21;100.00;96147.59;2545133;29;20051;-80
2023/03/10 04:12:26;;;;;;;3.85;1.50;;;;;;;8.40;100.00;96141.34;2551375;28;20067;-80
2023/03/10 04:13:44;;;;;;;4.05;1.80;;;;;;;8.27;100.00;96139.44;2550960;29;20111;-81
2023/03/10 04:15:00;;;;;;;3.97;1.40;;;;;;;8.43;100.00;96133.34;2553271;29;20063;-80
2023/03/10 04:16:15;;;;;;;2.50;1.15;;;;;;;8.45;100.00;96134.09;2552407;29;20500;-88
2023/03/10 04:17:31;;;;;;;6.15;1.55;;;;;;;8.58;100.00;96137.72;2552611;28;20051;-82
2023/03/10 04:18:47;;;;;;;4.72;1.40;;;;;;;8.80;100.00;96133.91;2550958;29;20393;-81
2023/03/10 04:20:06;;;;;;;2.58;1.67;;;;;;;8.52;100.00;96132.88;2553357;29;20074;-80
2023/03/10 04:21:22;;;;;;;4.47;1.30;;;;;;;8.79;100.00;96128.75;2552415;28;20062;-80
2023/03/10 04:22:38;;;;;;;4.85;1.67;;;;;;;8.80;100.00;96125.22;2550558;29;20498;-85
2023/03/10 04:23:54;;;;;;;4.55;1.27;;;;;;;8.57;100.00;96128.22;2550774;29;20062;-83
2023/03/10 04:25:10;;;;;;;2.63;1.13;;;;;;;8.57;100.00;96128.22;2552272;29;20051;-81
2023/03/10 04:26:25;;;;;;;5.63;1.50;;;;;;;8.54;100.00;96131.00;2552463;29;20074;-80
2023/03/10 04:27:41;;;;;;;5.93;1.30;;;;;;;8.73;100.00;96132.56;2552937;29;20060;-79
2023/03/10 04:28:57;;;;;;;2.35;1.20;;;;;;;8.87;100.00;96134.34;2553074;29;20056;-80
2023/03/10 04:30:14;;;;;;;3.58;1.10;;;;;;;8.72;100.00;96131.69;2552911;29;20055;-80
2023/03/10 04:31:30;;;;;;;3.40;1.38;;;;;;;8.95;100.00;96126.91;2551841;29;20055;-80
2023/03/10 04:32:46;;;;;;;4.50;1.65;;;;;;;8.88;100.00;96126.44;2551046;29;20087;-80
2023/03/10 04:34:02;;;;;;;3.38;1.35;;;;;;;8.96;100.00;96123.38;2549738;29;20595;-83
2023/03/10 04:35:17;;;;;;;3.33;1.17;;;;;;;8.74;100.00;96123.81;2551079;29;20584;-81
2023/03/10 04:36:33;;;;;;;3.75;1.20;;;;;;;8.74;100.00;96127.25;2551268;28;20532;-83
2023/03/10 04:37:48;;;;;;;4.32;1.30;;;;;;;8.73;100.00;96125.59;2551873;29;20176;-80
2023/03/10 04:39:04;;;;;;;4.07;1.20;;;;;;;8.65;100.00;96124.31;2552788;28;20055;-80
2023/03/10 04:40:20;;;;;;;2.75;1.10;;;;;;;8.40;100.00;96115.28;2551881;29;21110;-80
2023/03/10 04:41:36;;;;;;;4.00;1.17;;;;;;;8.25;100.00;96116.97;2551160;29;20099;-80
2023/03/10 04:42:51;;;;;;;3.35;0.93;;;;;;;8.15;100.00;96114.06;2550789;29;20083;-82
2023/03/10 04:44:08;;;;;;;5.15;1.25;;;;;;;8.16;100.00;96105.31;2550999;29;20055;-80
2023/03/10 04:45:24;;;;;;;4.43;1.05;;;;;;;8.12;100.00;96111.63;2552004;29;20074;-81
2023/03/10 04:46:39;;;;;;;2.65;1.27;;;;;;;8.47;100.00;96106.16;2552810;29;20430;-81
2023/03/10 04:47:55;;;;;;;2.65;1.13;;;;;;;8.51;100.00;96092.06;2551726;29;20503;-81
2023/03/10 04:49:10;;;;;;;3.90;1.20;;;;;;;8.31;100.00;96099.22;2550261;29;20080;-80
2023/03/10 04:50:26;;;;;;;3.63;1.58;;;;;;;8.33;100.00;96097.38;2551504;29;20063;-80
2023/03/10 04:51:42;;;;;;;4.20;1.30;;;;;;;8.46;100.00;96101.88;2551006;29;20101;-81
2023/03/10 04:52:58;;;;;;;4.30;1.35;;;;;;;8.57;100.00;96101.28;2540978;29;20056;-81
2023/03/10 04:54:13;;;;;;;5.20;1.30;;;;;;;8.81;100.00;96091.22;2545951;29;20082;-81
2023/03/10 04:55:29;;;;;;;2.83;1.40;;;;;;;8.93;100.00;96100.09;2550533;29;20086;-81
2023/03/10 04:56:45;;;;;;;3.15;1.33;;;;;;;8.75;100.00;96097.63;2551191;29;20056;-81
2023/03/10 04:58:00;;;;;;;3.58;1.40;;;;;;;8.55;100.00;96101.41;2551963;29;20078;-84
2023/03/10 04:59:16;;;;;;;4.93;1.40;;;;;;;8.65;100.00;96103.44;2551667;29;20198;-80
2023/03/10 05:00:32;;;;;;;4.60;1.80;;;;;;;8.40;100.00;96110.91;2551056;29;20358;-86
2023/03/10 05:01:48;;;;;;;3.50;1.55;;;;;;;8.31;100.00;96101.84;2550844;29;20126;-81
2023/03/10 05:03:04;;;;;;;4.53;1.83;;;;;;;8.41;100.00;96102.13;2552974;29;20055;-84
2023/03/10 05:04:20;;;;;;;4.00;1.80;;;;;;;8.44;100.00;96095.91;2552990;29;20118;-80
2023/03/10 05:05:36;;;;;;;5.60;1.75;;;;;;;8.57;100.00;96090.84;2550552;29;20059;-80
2023/03/10 05:06:52;;;;;;;3.63;2.00;;;;;;;8.68;100.00;96096.28;2552368;29;20098;-85
2023/03/10 05:08:08;;;;;;;5.78;2.00;;;;;;;8.68;100.00;96092.88;2550551;29;20054;-81
2023/03/10 05:09:23;;;;;;;3.33;1.70;;;;;;;8.58;100.00;96089.94;2552160;29;20051;-81
2023/03/10 05:10:41;;;;;;;6.68;2.22;;;;;;;8.76;100.00;96081.03;2551864;29;20066;-81
2023/03/10 05:11:56;;;;;;;4.15;1.98;;;;;;;8.66;100.00;96085.13;2551661;29;20689;-81
2023/03/10 05:13:12;;;;;;;3.45;1.50;;;;;;;8.74;100.00;96087.28;2551636;29;20078;-80
2023/03/10 05:14:28;;;;;;;4.13;1.77;;;;;;;8.88;100.00;96087.31;2551969;29;20069;-80
2023/03/10 05:15:44;;;;;;;4.88;1.65;;;;;;;8.81;100.00;96093.81;2552026;29;20422;-81
2023/03/10 05:16:59;;;;;;;2.65;1.58;;;;;;;8.64;100.00;96092.19;2553113;29;20059;-81
2023/03/10 05:18:15;;;;;;;3.97;1.40;;;;;;;8.60;100.00;96090.69;2551258;29;20570;-80
2023/03/10 05:19:35;;;;;;;4.70;2.05;;;;;;;8.51;100.00;96097.25;2551148;29;20066;-80
2023/03/10 05:20:56;;;;;;;3.85;1.83;;;;;;;8.43;100.00;96095.06;2549883;29;20667;-81
2023/03/10 05:22:12;;;;;;;4.30;1.55;;;;;;;8.29;100.00;96095.88;2553176;28;20656;-82
2023/03/10 05:23:27;;;;;;;4.53;2.25;;;;;;;8.37;100.00;96097.19;2539201;29;20052;-79
2023/03/10 05:24:43;;;;;;;5.75;2.00;;;;;;;8.55;100.00;96092.72;2545193;29;20396;-83
2023/03/10 05:26:03;;;;;;;7.40;1.90;;;;;;;8.61;100.00;96084.56;2552344;29;20063;-81
2023/03/10 05:27:20;;;;;;;4.95;1.42;;;;;;;8.79;100.00;96082.63;2550884;29;20058;-80
2023/03/10 05:28:36;;;;;;;4.28;1.05;;;;;;;8.82;100.00;96079.84;2551398;29;20055;-81
2023/03/10 05:29:52;;;;;;;2.38;1.33;;;;;;;8.96;100.00;96078.19;2551036;29;20051;-81
2023/03/10 05:31:15;;;;;;;5.30;1.30;;;;;;;9.00;100.00;96077.06;2550370;28;20047;-81
2023/03/10 05:32:33;;;;;;;3.15;1.20;;;;;;;8.97;100.00;96078.09;2551653;29;20063;-81
2023/03/10 05:33:49;;;;;;;4.80;1.35;;;;;;;8.95;100.00;96081.72;2552553;29;20051;-81
2023/03/10 05:35:05;;;;;;;3.47;1.27;;;;;;;8.99;100.00;96078.00;2552811;28;20129;-86
2023/03/10 05:36:21;;;;;;;3.58;1.20;;;;;;;9.04;100.00;96089.00;2551140;28;20048;-81
2023/03/10 05:37:41;;;;;;;4.65;1.48;;;;;;;9.04;100.00;96087.25;2550280;28;20244;-81
2023/03/10 05:38:57;;;;;;;3.17;1.40;;;;;;;9.08;100.00;96089.66;2549949;29;20111;-82
2023/03/10 05:40:15;;;;;;;5.25;2.08;;;;;;;8.95;100.00;96100.00;2551536;29;20389;-82
2023/03/10 05:41:31;;;;;;;6.35;2.22;;;;;;;9.04;100.00;96089.00;2550773;29;20592;-82
2023/03/10 05:42:49;;;;;;;5.68;2.53;;;;;;;8.97;100.00;96092.91;2551320;29;20862;-82
2023/03/10 05:44:05;;;;;;;6.18;2.08;;;;;;;8.94;100.00;96086.09;2551832;29;20074;-82
2023/03/10 05:45:21;;;;;;;4.43;1.83;;;;;;;8.99;100.00;96078.00;2550787;29;20499;-81
2023/03/10 05:46:36;;;;;;;5.50;2.13;;;;;;;9.14;100.00;96081.44;2552410;29;20137;-81
2023/03/10 05:47:52;;;;;;;5.28;1.80;;;;;;;9.06;100.00;96074.06;2552070;29;20047;-81
2023/03/10 05:49:08;;;;;;;5.47;2.00;;;;;;;9.30;100.00;96084.81;2549916;29;20518;-81
2023/03/10 05:50:23;;;;;;;6.00;1.70;;;;;;;9.08;100.00;96087.03;2542425;29;20096;-80
2023/03/10 05:51:39;;;;;;;3.15;1.48;;;;;;;8.96;100.00;96088.63;2545477;29;20079;-85
2023/03/10 05:52:54;;;;;;;5.50;1.35;;;;;;;9.01;100.00;96084.81;2550821;29;20134;-82
2023/03/10 05:54:10;;;;;;;4.50;1.40;;;;;;;9.01;100.00;96089.19;2551053;29;20450;-81
2023/03/10 05:55:28;;;;;;;6.13;1.90;;;;;;;8.98;100.00;96084.16;2551631;29;20047;-81
2023/03/10 05:56:43;;;;;;;5.63;2.15;;;;;;;8.98;100.00;96095.41;2550285;29;20051;-81
2023/03/10 05:57:59;;;;;;;5.13;2.30;;;;;;;8.88;100.00;96097.75;2552335;29;20419;-80
2023/03/10 05:59:15;;;;;;;6.38;1.92;;;;;;;8.84;100.00;96098.84;2550395;29;20861;-80
2023/03/10 06:00:31;;;;;;;3.28;1.88;;;;;;;8.90;100.00;96105.50;2551363;29;20146;-81
2023/03/10 06:01:46;;;;;;;5.32;1.52;;;;;;;8.91;100.00;96096.72;2551961;28;20055;-80